This is the latest recevied weather packets stored in our database for station/object K5YNC. If no packets are shown the sender has not sent any weather packets the latest 10 day(s).
| Time | Temp. | Humidity | Pressure | Rain* | Wind** | Luminosity | Snow |
|---|---|---|---|---|---|---|---|
| 1777908836 | 21.11° C | 65% | 1012.7 hPa | 0 mm | - | 461 W/m² | - |
| 1777908532 | 21.67° C | 65% | 1012.7 hPa | 0 mm | - | 419 W/m² | - |
| 1777908229 | 21.11° C | 65% | 1012.7 hPa | 0 mm | - | 465 W/m² | - |
| 1777907926 | 21.11° C | 66% | 1012.6 hPa | 0 mm | - | 462 W/m² | - |
| 1777907622 | 21.11° C | 66% | 1012.8 hPa | 0 mm | - | 431 W/m² | - |
| 1777907317 | 21.11° C | 66% | 1012.8 hPa | 0 mm | - | 479 W/m² | - |
| 1777907014 | 21.11° C | 65% | 1012.9 hPa | 0 mm | - | 449 W/m² | - |
| 1777906712 | 20.56° C | 66% | 1013 hPa | 0 mm | - | 471 W/m² | - |
| 1777906407 | 20.56° C | 67% | 1012.9 hPa | 0 mm | - | 432 W/m² | - |
| 1777906104 | 20° C | 68% | 1013.2 hPa | 0 mm | - | 419 W/m² | - |
| 1777905801 | 20° C | 67% | 1013.1 hPa | 0 mm | - | 392 W/m² | - |
| 1777905499 | 20° C | 68% | 1013.1 hPa | 0 mm | - | 386 W/m² | - |
| 1777905195 | 20° C | 68% | 1013 hPa | 0 mm | - | 378 W/m² | - |
| 1777904893 | 20° C | 68% | 1013.2 hPa | 0 mm | - | 294 W/m² | - |
| 1777904589 | 19.44° C | 68% | 1013 hPa | 0 mm | - | 324 W/m² | - |
| 1777904287 | 19.44° C | 69% | 1013 hPa | 0 mm | - | 253 W/m² | - |
| 1777903984 | 18.89° C | 69% | 1013.1 hPa | 0 mm | - | 264 W/m² | - |
| 1777903680 | 18.89° C | 69% | 1013.2 hPa | 0 mm | - | 207 W/m² | - |
| 1777903376 | 18.89° C | 69% | 1013.2 hPa | 0 mm | - | 252 W/m² | - |
| 1777903073 | 18.89° C | 69% | 1013.1 hPa | 0 mm | - | 182 W/m² | - |
| 1777902769 | 18.33° C | 69% | 1013.1 hPa | 0 mm | - | 247 W/m² | - |
| 1777902467 | 18.33° C | 70% | 1012.9 hPa | 0 mm | - | 198 W/m² | - |
| 1777902163 | 17.78° C | 71% | 1013 hPa | 0 mm | - | 190 W/m² | - |
| 1777901862 | 17.78° C | 71% | 1013 hPa | 0 mm | - | 189 W/m² | - |
| 1777901559 | 17.78° C | 71% | 1013.1 hPa | 0 mm | - | 157 W/m² | - |
* Rain latest hour (hover to see other rain measurements)
** Current wind speed in m/s (hover to see current wind gust speed)